MMGL 090640Z 00000KT 10SM SKC 09/04 A3022= 090641

MMGL 090543Z 00000KT 10SM SKC 10/03 A3023 RMK SLP160 52018 908= 090544

MMGL 090443Z 00000KT 10SM SKC 13/03 A3023= 090443

MMGL 090342Z 00000KT 10SM SKC 13/02 A3022= 090342

MMGL 090243Z 24004KT 8SM SKC 17/01 A3021 RMK SLP151 52020 902= 090244

MMGL 090142Z 26004KT 8SM SKC 17/01 A3018= 090143

MMGL 090043Z 22003KT 8SM SKC 20/02 A3015 RMK ISOL CI= 090044

MMGL 082346Z 28004KT 8SM SKC 26/M01 A3014 RMK SLP115 57010 903= 082347

MMGL 082242Z 26008KT 8SM SKC 27/M03 A3013 RMK RTS= 082242

MMGL 082143Z 32005KT 8SM SKC 27/00 A3014 RMK FU/S CI= 082143

MMGL 082042Z 28004G16KT 8SM SKC 27/00 A3014 RMK SLP120 57032 905 FU/S CI= 082043

MMGL 081944Z 00000KT 7SM SKC 27/01 A3016 RMK HZY PRESFR CI= 081945

MMGL 081845Z 12004KT 7SM SKC 26/03 A3021 RMK HZY CI= 081845

MMGL 081754Z 05004KT 6SM SKC 24/06 A3025 RMK SLP159 57000 918 HZY CI SE= 081755

MMGL 081645Z 05003KT 6SM FEW300 21/08 A3028 RMK 8/001 HZY= 081646

MMGL 081544Z 00000KT 6SM SCT300 17/06 A3029 RMK 8/001 HZY= 081547

MMGL 081444Z 00000KT 7SM SCT300 12/05 A3028 RMK SLP177 52017 951 8/001 HZY= 081444

SPECI MMGL 081428Z 00000KT 7SM SCT300 11/05 A3028 RMK 8/001 HZY= 081429

SPECI MMGL 081405Z 00000KT 7SM SCT300 07/04 A3027 RMK 8/001 HZY= 081406

MMGL 081342Z 00000KT 7SM SCT300 04/02 A3027 RMK 8/001 HZY= 081343

MMGL 081242Z 00000KT 8SM SKC 06/04 A3025 RMK SC-CI= 081242

MMGL 081145Z 00000KT 8SM SKC 07/04 A3022 RMK SLP151 57005 900= 081146

MMGL 081040Z 00000KT 8SM SKC 06/03 A3021= 081041

MMGL 080940Z 00000KT 8SM SKC 07/04 A3021= 080941

MMGL 080843Z 00000KT 8SM SKC 08/04 A3022 RMK SLP148 54000 905= 080844

MMGL 080740Z 00000KT 8SM SKC 08/04 A3022= 080740

MMGL 080640Z 00000KT 8SM SKC 10/05 A3022= 080640

MMGL 080545Z 00000KT 8SM SKC 12/04 A3022 RMK SLP148 52012 901= 080546

MMGL 080444Z 00000KT 8SM SKC 15/04 A3022= 080444

MMGL 080341Z 00000KT 8SM SKC 16/05 A3021= 080342

MMGL 080243Z 20006KT 8SM SKC 17/01 A3020 RMK SLP146 52021 958= 080243

MMGL 080142Z 26005KT 8SM SKC 19/01 A3016= 080142

MMGL 080042Z 00000KT 10SM SKC 20/01 A3014 RMK CI= 080043

MMGL 072345Z 28008KT 10SM SKC 24/01 A3013 RMK SLP115 57007 964 FU/S= 072346

MMGL 072244Z 32006KT 10SM SKC 26/M03 A3012= 072245

MMGL 072142Z 32005KT 10SM SKC 26/01 A3012 RMK FU/W= 072142

MMGL 072044Z 04007KT 10SM SKC 26/03 A3013 RMK SLP114 57027 958 ISOL CU CI= 072044

MMGL 071945Z 00000KT 10SM SKC 25/03 A3015= 071945

MMGL 071843Z 00000KT 8SM SKC 25/07 A3019= 071844

MMGL 071755Z 00000KT 8SM SKC 24/07 A3022 RMK SLP149 57012 961= 071755

MMGL 071645Z 00000KT 8SM SKC 20/09 A3026= 071645

MMGL 071551Z 06004KT 8SM SKC 18/09 A3026= 071552

MMGL 071446Z 00000KT 10SM SKC 13/07 A3026 RMK SLP178 52018 954= 071447

MMGL 071344Z 00000KT 10SM SKC 06/04 A3023= 071344

MMGL 071245Z 16003KT 8SM SKC 08/05 A3020 RMK ISOL CI= 071246

MMGL 071146Z 16003KT 10SM SCT300 08/05 A3020 RMK SLP148 54000 958 8/001= 071146

MMGL 071102Z RTD 16003KT 10SM SKC 08/05 A3020= 071103

MMGL 071001Z RTD 16003KT 10SM SKC 08/05 A3020= 071002

MMGL 070851Z 00000KT 10SM SKC 09/06 A3022 RMK SLP139 52006 956= 070852

MMGL 070747Z 00000KT 10SM SKC 10/05 A3022= 070748